sensor_id;sensor_type;location;lat;lon;timestamp;P1;durP1;ratioP1;P2;durP2;ratioP2
43877;SDS011;29815;48.184;11.268;2022-07-23T00:01:02;10.48;;;9.48;;
43877;SDS011;29815;48.184;11.268;2022-07-23T00:03:32;10.87;;;9.77;;
43877;SDS011;29815;48.184;11.268;2022-07-23T00:06:02;10.70;;;9.75;;
43877;SDS011;29815;48.184;11.268;2022-07-23T00:08:36;11.20;;;10.13;;
43877;SDS011;29815;48.184;11.268;2022-07-23T00:11:06;9.75;;;8.80;;
43877;SDS011;29815;48.184;11.268;2022-07-23T00:17:01;11.38;;;10.02;;
43877;SDS011;29815;48.184;11.268;2022-07-23T00:19:31;11.00;;;10.00;;
43877;SDS011;29815;48.184;11.268;2022-07-23T00:22:01;11.43;;;10.18;;
43877;SDS011;29815;48.184;11.268;2022-07-23T00:24:31;10.32;;;9.43;;
43877;SDS011;29815;48.184;11.268;2022-07-23T00:27:01;10.85;;;9.93;;
43877;SDS011;29815;48.184;11.268;2022-07-23T00:29:31;10.70;;;9.68;;
43877;SDS011;29815;48.184;11.268;2022-07-23T00:32:02;11.48;;;10.43;;
43877;SDS011;29815;48.184;11.268;2022-07-23T00:34:33;11.48;;;10.25;;
43877;SDS011;29815;48.184;11.268;2022-07-23T00:37:03;11.23;;;9.85;;
43877;SDS011;29815;48.184;11.268;2022-07-23T00:39:33;11.73;;;10.65;;
43877;SDS011;29815;48.184;11.268;2022-07-23T00:42:03;11.60;;;10.40;;
43877;SDS011;29815;48.184;11.268;2022-07-23T00:44:33;10.98;;;9.90;;
43877;SDS011;29815;48.184;11.268;2022-07-23T00:47:04;13.10;;;11.63;;
43877;SDS011;29815;48.184;11.268;2022-07-23T00:52:04;12.15;;;10.60;;
43877;SDS011;29815;48.184;11.268;2022-07-23T00:54:34;13.23;;;12.02;;
43877;SDS011;29815;48.184;11.268;2022-07-23T00:57:04;12.82;;;11.63;;
43877;SDS011;29815;48.184;11.268;2022-07-23T00:59:34;13.75;;;11.57;;
43877;SDS011;29815;48.184;11.268;2022-07-23T01:02:05;13.95;;;11.45;;
43877;SDS011;29815;48.184;11.268;2022-07-23T01:04:35;11.98;;;10.48;;
43877;SDS011;29815;48.184;11.268;2022-07-23T01:07:05;11.63;;;10.45;;
43877;SDS011;29815;48.184;11.268;2022-07-23T01:09:35;13.98;;;9.82;;
43877;SDS011;29815;48.184;11.268;2022-07-23T01:12:06;16.13;;;10.93;;
43877;SDS011;29815;48.184;11.268;2022-07-23T01:14:37;12.63;;;10.05;;
43877;SDS011;29815;48.184;11.268;2022-07-23T01:17:09;25.83;;;11.48;;
43877;SDS011;29815;48.184;11.268;2022-07-23T01:19:43;15.55;;;11.15;;
43877;SDS011;29815;48.184;11.268;2022-07-23T01:22:13;17.48;;;9.98;;
43877;SDS011;29815;48.184;11.268;2022-07-23T01:24:48;13.95;;;10.00;;
43877;SDS011;29815;48.184;11.268;2022-07-23T01:27:23;15.07;;;11.95;;
43877;SDS011;29815;48.184;11.268;2022-07-23T01:29:57;15.63;;;10.70;;
43877;SDS011;29815;48.184;11.268;2022-07-23T01:32:29;14.93;;;11.30;;
43877;SDS011;29815;48.184;11.268;2022-07-23T01:34:59;14.00;;;10.07;;
43877;SDS011;29815;48.184;11.268;2022-07-23T01:37:29;13.38;;;11.98;;
43877;SDS011;29815;48.184;11.268;2022-07-23T01:40:01;13.93;;;11.52;;
43877;SDS011;29815;48.184;11.268;2022-07-23T01:42:34;15.23;;;10.50;;
43877;SDS011;29815;48.184;11.268;2022-07-23T01:45:05;12.32;;;10.93;;
43877;SDS011;29815;48.184;11.268;2022-07-23T01:47:38;13.50;;;11.40;;
43877;SDS011;29815;48.184;11.268;2022-07-23T01:50:08;12.25;;;10.48;;
43877;SDS011;29815;48.184;11.268;2022-07-23T01:52:44;12.90;;;10.18;;
43877;SDS011;29815;48.184;11.268;2022-07-23T01:55:23;15.18;;;11.15;;
43877;SDS011;29815;48.184;11.268;2022-07-23T01:57:53;14.23;;;11.07;;
43877;SDS011;29815;48.184;11.268;2022-07-23T02:00:27;14.00;;;10.93;;
43877;SDS011;29815;48.184;11.268;2022-07-23T02:02:57;14.90;;;11.10;;
43877;SDS011;29815;48.184;11.268;2022-07-23T02:05:28;16.05;;;12.07;;
43877;SDS011;29815;48.184;11.268;2022-07-23T02:08:00;13.82;;;10.50;;
43877;SDS011;29815;48.184;11.268;2022-07-23T02:10:36;12.45;;;10.35;;
43877;SDS011;29815;48.184;11.268;2022-07-23T02:13:06;13.13;;;11.45;;
43877;SDS011;29815;48.184;11.268;2022-07-23T02:15:35;14.05;;;11.00;;
43877;SDS011;29815;48.184;11.268;2022-07-23T02:18:05;15.80;;;11.30;;
43877;SDS011;29815;48.184;11.268;2022-07-23T02:20:35;12.75;;;10.73;;
43877;SDS011;29815;48.184;11.268;2022-07-23T02:23:08;12.55;;;10.32;;
43877;SDS011;29815;48.184;11.268;2022-07-23T02:25:39;14.30;;;9.93;;
43877;SDS011;29815;48.184;11.268;2022-07-23T02:28:10;10.63;;;9.52;;
43877;SDS011;29815;48.184;11.268;2022-07-23T02:30:41;12.30;;;10.23;;
43877;SDS011;29815;48.184;11.268;2022-07-23T02:33:11;10.75;;;9.70;;
43877;SDS011;29815;48.184;11.268;2022-07-23T02:35:41;14.10;;;10.05;;
43877;SDS011;29815;48.184;11.268;2022-07-23T02:38:11;11.35;;;9.90;;
43877;SDS011;29815;48.184;11.268;2022-07-23T02:40:42;10.88;;;9.77;;
43877;SDS011;29815;48.184;11.268;2022-07-23T02:43:11;11.95;;;10.32;;
43877;SDS011;29815;48.184;11.268;2022-07-23T02:45:41;10.88;;;9.70;;
43877;SDS011;29815;48.184;11.268;2022-07-23T02:48:11;13.20;;;11.63;;
43877;SDS011;29815;48.184;11.268;2022-07-23T02:50:43;13.15;;;10.98;;
43877;SDS011;29815;48.184;11.268;2022-07-23T02:53:17;13.57;;;9.90;;
43877;SDS011;29815;48.184;11.268;2022-07-23T02:55:48;10.82;;;9.63;;
43877;SDS011;29815;48.184;11.268;2022-07-23T02:58:17;8.38;;;7.53;;
43877;SDS011;29815;48.184;11.268;2022-07-23T03:00:48;8.88;;;7.97;;
43877;SDS011;29815;48.184;11.268;2022-07-23T03:03:18;9.10;;;7.47;;
43877;SDS011;29815;48.184;11.268;2022-07-23T03:05:47;9.18;;;7.57;;
43877;SDS011;29815;48.184;11.268;2022-07-23T03:08:17;7.93;;;6.75;;
43877;SDS011;29815;48.184;11.268;2022-07-23T03:10:52;7.60;;;6.85;;
43877;SDS011;29815;48.184;11.268;2022-07-23T03:13:22;7.65;;;6.90;;
43877;SDS011;29815;48.184;11.268;2022-07-23T03:15:53;7.22;;;6.15;;
43877;SDS011;29815;48.184;11.268;2022-07-23T03:18:22;8.00;;;6.78;;
43877;SDS011;29815;48.184;11.268;2022-07-23T03:20:54;9.13;;;7.40;;
43877;SDS011;29815;48.184;11.268;2022-07-23T03:23:24;8.50;;;6.30;;
43877;SDS011;29815;48.184;11.268;2022-07-23T03:25:55;8.20;;;7.20;;
43877;SDS011;29815;48.184;11.268;2022-07-23T03:28:24;7.85;;;6.78;;
43877;SDS011;29815;48.184;11.268;2022-07-23T03:30:54;9.20;;;7.15;;
43877;SDS011;29815;48.184;11.268;2022-07-23T03:33:24;7.95;;;7.15;;
43877;SDS011;29815;48.184;11.268;2022-07-23T03:35:54;9.20;;;6.68;;
43877;SDS011;29815;48.184;11.268;2022-07-23T03:38:29;8.15;;;7.20;;
43877;SDS011;29815;48.184;11.268;2022-07-23T03:41:00;6.88;;;5.95;;
43877;SDS011;29815;48.184;11.268;2022-07-23T03:43:33;7.55;;;6.30;;
43877;SDS011;29815;48.184;11.268;2022-07-23T03:46:02;7.93;;;6.40;;
43877;SDS011;29815;48.184;11.268;2022-07-23T03:48:32;6.00;;;5.50;;
43877;SDS011;29815;48.184;11.268;2022-07-23T03:51:02;6.97;;;6.28;;
43877;SDS011;29815;48.184;11.268;2022-07-23T03:53:32;6.22;;;5.47;;
43877;SDS011;29815;48.184;11.268;2022-07-23T03:56:03;9.13;;;6.03;;
43877;SDS011;29815;48.184;11.268;2022-07-23T03:58:34;8.50;;;6.28;;
43877;SDS011;29815;48.184;11.268;2022-07-23T04:01:03;6.50;;;5.28;;
43877;SDS011;29815;48.184;11.268;2022-07-23T04:03:33;10.10;;;5.93;;
43877;SDS011;29815;48.184;11.268;2022-07-23T04:06:03;7.88;;;5.55;;
43877;SDS011;29815;48.184;11.268;2022-07-23T04:08:35;6.88;;;6.18;;
43877;SDS011;29815;48.184;11.268;2022-07-23T04:11:06;7.53;;;6.70;;
43877;SDS011;29815;48.184;11.268;2022-07-23T04:13:36;7.03;;;6.22;;
43877;SDS011;29815;48.184;11.268;2022-07-23T04:16:06;8.02;;;6.32;;
43877;SDS011;29815;48.184;11.268;2022-07-23T04:18:36;8.95;;;6.95;;
43877;SDS011;29815;48.184;11.268;2022-07-23T04:21:18;8.77;;;6.70;;
43877;SDS011;29815;48.184;11.268;2022-07-23T04:23:48;7.50;;;6.72;;
43877;SDS011;29815;48.184;11.268;2022-07-23T04:26:20;7.40;;;6.70;;
43877;SDS011;29815;48.184;11.268;2022-07-23T04:28:49;7.30;;;6.15;;
43877;SDS011;29815;48.184;11.268;2022-07-23T04:31:19;6.82;;;5.90;;
43877;SDS011;29815;48.184;11.268;2022-07-23T04:33:49;7.90;;;6.88;;
43877;SDS011;29815;48.184;11.268;2022-07-23T04:36:18;6.75;;;6.05;;
43877;SDS011;29815;48.184;11.268;2022-07-23T04:38:48;6.95;;;6.28;;
43877;SDS011;29815;48.184;11.268;2022-07-23T04:41:21;9.50;;;7.18;;
43877;SDS011;29815;48.184;11.268;2022-07-23T04:43:51;8.07;;;7.00;;
43877;SDS011;29815;48.184;11.268;2022-07-23T04:46:21;11.13;;;7.05;;
43877;SDS011;29815;48.184;11.268;2022-07-23T04:48:51;7.70;;;7.00;;
43877;SDS011;29815;48.184;11.268;2022-07-23T04:51:21;10.73;;;7.28;;
43877;SDS011;29815;48.184;11.268;2022-07-23T04:53:51;8.13;;;7.18;;
43877;SDS011;29815;48.184;11.268;2022-07-23T04:56:23;11.27;;;6.63;;
43877;SDS011;29815;48.184;11.268;2022-07-23T04:58:53;9.07;;;7.13;;
43877;SDS011;29815;48.184;11.268;2022-07-23T05:01:22;7.65;;;6.93;;
43877;SDS011;29815;48.184;11.268;2022-07-23T05:03:52;7.78;;;6.90;;
43877;SDS011;29815;48.184;11.268;2022-07-23T05:06:24;8.47;;;6.30;;
43877;SDS011;29815;48.184;11.268;2022-07-23T05:08:54;7.78;;;6.93;;
43877;SDS011;29815;48.184;11.268;2022-07-23T05:11:25;6.07;;;5.50;;
43877;SDS011;29815;48.184;11.268;2022-07-23T05:13:55;8.88;;;7.20;;
43877;SDS011;29815;48.184;11.268;2022-07-23T05:16:25;8.05;;;6.72;;
43877;SDS011;29815;48.184;11.268;2022-07-23T05:18:59;8.77;;;6.95;;
43877;SDS011;29815;48.184;11.268;2022-07-23T05:21:32;8.15;;;6.80;;
43877;SDS011;29815;48.184;11.268;2022-07-23T05:24:02;7.78;;;6.90;;
43877;SDS011;29815;48.184;11.268;2022-07-23T05:26:34;8.43;;;7.40;;
43877;SDS011;29815;48.184;11.268;2022-07-23T05:29:04;7.95;;;7.25;;
43877;SDS011;29815;48.184;11.268;2022-07-23T05:31:35;8.55;;;7.22;;
43877;SDS011;29815;48.184;11.268;2022-07-23T05:34:05;7.43;;;6.15;;
43877;SDS011;29815;48.184;11.268;2022-07-23T05:36:36;8.85;;;7.20;;
43877;SDS011;29815;48.184;11.268;2022-07-23T05:39:05;7.13;;;6.28;;
43877;SDS011;29815;48.184;11.268;2022-07-23T05:41:38;7.22;;;6.28;;
43877;SDS011;29815;48.184;11.268;2022-07-23T05:44:09;6.60;;;6.00;;
43877;SDS011;29815;48.184;11.268;2022-07-23T05:46:40;7.63;;;6.90;;
43877;SDS011;29815;48.184;11.268;2022-07-23T05:49:15;7.70;;;7.00;;
43877;SDS011;29815;48.184;11.268;2022-07-23T05:52:11;9.70;;;6.00;;
43877;SDS011;29815;48.184;11.268;2022-07-23T05:55:00;7.72;;;6.03;;
43877;SDS011;29815;48.184;11.268;2022-07-23T05:57:31;7.10;;;6.40;;
43877;SDS011;29815;48.184;11.268;2022-07-23T06:00:02;10.45;;;7.20;;
43877;SDS011;29815;48.184;11.268;2022-07-23T06:02:40;8.13;;;7.15;;
43877;SDS011;29815;48.184;11.268;2022-07-23T06:05:12;8.90;;;6.55;;
43877;SDS011;29815;48.184;11.268;2022-07-23T06:07:41;9.07;;;8.02;;
43877;SDS011;29815;48.184;11.268;2022-07-23T06:10:12;10.35;;;7.40;;
43877;SDS011;29815;48.184;11.268;2022-07-23T06:12:44;8.20;;;7.00;;
43877;SDS011;29815;48.184;11.268;2022-07-23T06:15:13;10.18;;;7.65;;
43877;SDS011;29815;48.184;11.268;2022-07-23T06:17:43;7.90;;;7.20;;
43877;SDS011;29815;48.184;11.268;2022-07-23T06:20:13;10.27;;;8.63;;
43877;SDS011;29815;48.184;11.268;2022-07-23T06:22:42;8.85;;;7.72;;
43877;SDS011;29815;48.184;11.268;2022-07-23T06:25:12;9.15;;;8.25;;
43877;SDS011;29815;48.184;11.268;2022-07-23T06:27:47;9.00;;;7.20;;
43877;SDS011;29815;48.184;11.268;2022-07-23T06:30:17;8.85;;;7.95;;
43877;SDS011;29815;48.184;11.268;2022-07-23T06:32:47;7.43;;;6.65;;
43877;SDS011;29815;48.184;11.268;2022-07-23T06:35:17;9.35;;;7.15;;
43877;SDS011;29815;48.184;11.268;2022-07-23T06:37:47;7.07;;;6.38;;
43877;SDS011;29815;48.184;11.268;2022-07-23T06:40:17;9.27;;;7.65;;
43877;SDS011;29815;48.184;11.268;2022-07-23T06:42:49;8.35;;;7.55;;
43877;SDS011;29815;48.184;11.268;2022-07-23T06:45:22;7.97;;;7.18;;
43877;SDS011;29815;48.184;11.268;2022-07-23T06:47:52;8.88;;;7.95;;
43877;SDS011;29815;48.184;11.268;2022-07-23T06:50:22;8.85;;;7.97;;
43877;SDS011;29815;48.184;11.268;2022-07-23T06:52:52;9.85;;;8.82;;
43877;SDS011;29815;48.184;11.268;2022-07-23T06:55:21;7.75;;;6.93;;
43877;SDS011;29815;48.184;11.268;2022-07-23T06:57:52;8.30;;;7.50;;
43877;SDS011;29815;48.184;11.268;2022-07-23T07:00:22;9.45;;;7.75;;
43877;SDS011;29815;48.184;11.268;2022-07-23T07:02:53;10.00;;;8.55;;
43877;SDS011;29815;48.184;11.268;2022-07-23T07:05:23;9.13;;;8.32;;
43877;SDS011;29815;48.184;11.268;2022-07-23T07:07:54;8.98;;;7.93;;
43877;SDS011;29815;48.184;11.268;2022-07-23T07:10:24;8.75;;;7.95;;
43877;SDS011;29815;48.184;11.268;2022-07-23T07:12:55;9.00;;;7.95;;
43877;SDS011;29815;48.184;11.268;2022-07-23T07:15:25;10.40;;;8.65;;
43877;SDS011;29815;48.184;11.268;2022-07-23T07:17:55;10.25;;;9.23;;
43877;SDS011;29815;48.184;11.268;2022-07-23T07:20:24;10.50;;;9.40;;
43877;SDS011;29815;48.184;11.268;2022-07-23T07:22:54;10.93;;;9.38;;
43877;SDS011;29815;48.184;11.268;2022-07-23T07:25:23;10.70;;;9.60;;
43877;SDS011;29815;48.184;11.268;2022-07-23T07:27:53;10.70;;;9.55;;
43877;SDS011;29815;48.184;11.268;2022-07-23T07:30:24;10.38;;;9.27;;
43877;SDS011;29815;48.184;11.268;2022-07-23T07:33:05;9.80;;;8.75;;
43877;SDS011;29815;48.184;11.268;2022-07-23T07:35:35;12.20;;;10.23;;
43877;SDS011;29815;48.184;11.268;2022-07-23T07:38:05;11.27;;;10.02;;
43877;SDS011;29815;48.184;11.268;2022-07-23T07:40:35;14.55;;;11.15;;
43877;SDS011;29815;48.184;11.268;2022-07-23T07:43:06;10.43;;;9.25;;
43877;SDS011;29815;48.184;11.268;2022-07-23T07:45:35;12.10;;;10.85;;
43877;SDS011;29815;48.184;11.268;2022-07-23T07:48:05;11.20;;;9.10;;
43877;SDS011;29815;48.184;11.268;2022-07-23T07:50:35;12.00;;;10.00;;
43877;SDS011;29815;48.184;11.268;2022-07-23T07:53:04;10.65;;;9.65;;
43877;SDS011;29815;48.184;11.268;2022-07-23T07:55:36;10.93;;;9.82;;
43877;SDS011;29815;48.184;11.268;2022-07-23T07:58:07;10.65;;;9.43;;
43877;SDS011;29815;48.184;11.268;2022-07-23T08:00:37;10.27;;;9.38;;
43877;SDS011;29815;48.184;11.268;2022-07-23T08:03:07;10.70;;;9.70;;
43877;SDS011;29815;48.184;11.268;2022-07-23T08:05:36;10.23;;;8.98;;
43877;SDS011;29815;48.184;11.268;2022-07-23T08:08:06;11.23;;;10.23;;
43877;SDS011;29815;48.184;11.268;2022-07-23T08:10:36;10.05;;;9.05;;
43877;SDS011;29815;48.184;11.268;2022-07-23T08:13:07;11.98;;;9.52;;
43877;SDS011;29815;48.184;11.268;2022-07-23T08:15:41;10.95;;;9.75;;
43877;SDS011;29815;48.184;11.268;2022-07-23T08:18:14;9.82;;;8.82;;
43877;SDS011;29815;48.184;11.268;2022-07-23T08:20:43;11.75;;;8.98;;
43877;SDS011;29815;48.184;11.268;2022-07-23T08:23:13;10.68;;;9.60;;
43877;SDS011;29815;48.184;11.268;2022-07-23T08:25:46;9.70;;;8.65;;
43877;SDS011;29815;48.184;11.268;2022-07-23T08:28:17;11.23;;;10.15;;
43877;SDS011;29815;48.184;11.268;2022-07-23T08:30:47;12.75;;;11.43;;
43877;SDS011;29815;48.184;11.268;2022-07-23T08:33:17;12.00;;;10.32;;
43877;SDS011;29815;48.184;11.268;2022-07-23T08:36:00;10.68;;;9.57;;
43877;SDS011;29815;48.184;11.268;2022-07-23T08:38:32;9.85;;;8.85;;
43877;SDS011;29815;48.184;11.268;2022-07-23T08:41:02;9.88;;;8.40;;
43877;SDS011;29815;48.184;11.268;2022-07-23T08:43:37;11.32;;;8.95;;
43877;SDS011;29815;48.184;11.268;2022-07-23T08:46:09;11.38;;;9.18;;
43877;SDS011;29815;48.184;11.268;2022-07-23T08:48:40;10.00;;;8.95;;
43877;SDS011;29815;48.184;11.268;2022-07-23T08:51:11;10.27;;;9.30;;
43877;SDS011;29815;48.184;11.268;2022-07-23T08:53:40;10.15;;;9.13;;
43877;SDS011;29815;48.184;11.268;2022-07-23T08:56:11;9.50;;;8.55;;
43877;SDS011;29815;48.184;11.268;2022-07-23T08:58:42;9.65;;;8.65;;
43877;SDS011;29815;48.184;11.268;2022-07-23T09:01:11;11.07;;;9.00;;
43877;SDS011;29815;48.184;11.268;2022-07-23T09:03:42;10.10;;;9.10;;
43877;SDS011;29815;48.184;11.268;2022-07-23T09:06:13;9.52;;;8.73;;
43877;SDS011;29815;48.184;11.268;2022-07-23T09:08:43;10.02;;;9.05;;
43877;SDS011;29815;48.184;11.268;2022-07-23T09:14:40;10.52;;;8.57;;
43877;SDS011;29815;48.184;11.268;2022-07-23T09:17:15;9.82;;;8.93;;
43877;SDS011;29815;48.184;11.268;2022-07-23T09:19:46;8.70;;;7.90;;
43877;SDS011;29815;48.184;11.268;2022-07-23T09:22:17;9.13;;;8.23;;
43877;SDS011;29815;48.184;11.268;2022-07-23T09:25:05;9.27;;;8.48;;
43877;SDS011;29815;48.184;11.268;2022-07-23T09:27:49;7.88;;;7.18;;
43877;SDS011;29815;48.184;11.268;2022-07-23T09:30:25;20.15;;;9.90;;
43877;SDS011;29815;48.184;11.268;2022-07-23T09:33:04;8.93;;;8.02;;
43877;SDS011;29815;48.184;11.268;2022-07-23T09:35:46;7.88;;;7.18;;
43877;SDS011;29815;48.184;11.268;2022-07-23T09:38:24;8.05;;;7.30;;
43877;SDS011;29815;48.184;11.268;2022-07-23T09:41:06;7.82;;;7.03;;
43877;SDS011;29815;48.184;11.268;2022-07-23T09:43:37;8.60;;;7.68;;
43877;SDS011;29815;48.184;11.268;2022-07-23T09:46:18;7.75;;;6.95;;
43877;SDS011;29815;48.184;11.268;2022-07-23T09:48:50;7.43;;;6.60;;
43877;SDS011;29815;48.184;11.268;2022-07-23T09:51:21;7.00;;;5.78;;
43877;SDS011;29815;48.184;11.268;2022-07-23T09:53:58;6.95;;;6.30;;
43877;SDS011;29815;48.184;11.268;2022-07-23T09:56:28;6.65;;;5.95;;
43877;SDS011;29815;48.184;11.268;2022-07-23T09:58:58;8.38;;;6.20;;
43877;SDS011;29815;48.184;11.268;2022-07-23T10:01:33;7.97;;;7.18;;
43877;SDS011;29815;48.184;11.268;2022-07-23T10:04:03;7.97;;;6.40;;
43877;SDS011;29815;48.184;11.268;2022-07-23T10:06:55;7.07;;;5.72;;
43877;SDS011;29815;48.184;11.268;2022-07-23T10:09:56;6.70;;;6.05;;
43877;SDS011;29815;48.184;11.268;2022-07-23T10:12:53;7.55;;;6.40;;
43877;SDS011;29815;48.184;11.268;2022-07-23T10:15:48;7.97;;;6.15;;
43877;SDS011;29815;48.184;11.268;2022-07-23T10:18:20;6.53;;;5.63;;
43877;SDS011;29815;48.184;11.268;2022-07-23T10:20:49;6.78;;;6.07;;
43877;SDS011;29815;48.184;11.268;2022-07-23T10:23:20;6.75;;;5.78;;
43877;SDS011;29815;48.184;11.268;2022-07-23T10:25:59;9.20;;;7.05;;
43877;SDS011;29815;48.184;11.268;2022-07-23T10:28:45;6.82;;;5.95;;
43877;SDS011;29815;48.184;11.268;2022-07-23T10:31:35;6.27;;;5.67;;
43877;SDS011;29815;48.184;11.268;2022-07-23T10:34:34;7.53;;;5.70;;
43877;SDS011;29815;48.184;11.268;2022-07-23T10:37:14;6.82;;;5.68;;
43877;SDS011;29815;48.184;11.268;2022-07-23T10:45:28;6.95;;;6.25;;
43877;SDS011;29815;48.184;11.268;2022-07-23T10:48:14;6.20;;;5.60;;
43877;SDS011;29815;48.184;11.268;2022-07-23T10:51:08;6.28;;;5.68;;
43877;SDS011;29815;48.184;11.268;2022-07-23T10:53:53;6.68;;;6.07;;
43877;SDS011;29815;48.184;11.268;2022-07-23T11:02:49;6.97;;;6.28;;
43877;SDS011;29815;48.184;11.268;2022-07-23T11:05:22;7.97;;;7.18;;
43877;SDS011;29815;48.184;11.268;2022-07-23T11:08:11;8.10;;;7.30;;
43877;SDS011;29815;48.184;11.268;2022-07-23T11:13:25;8.35;;;6.70;;
43877;SDS011;29815;48.184;11.268;2022-07-23T11:19:05;7.93;;;6.47;;
43877;SDS011;29815;48.184;11.268;2022-07-23T11:21:46;7.57;;;6.90;;
43877;SDS011;29815;48.184;11.268;2022-07-23T11:24:22;7.38;;;6.68;;
43877;SDS011;29815;48.184;11.268;2022-07-23T11:26:58;8.65;;;7.50;;
43877;SDS011;29815;48.184;11.268;2022-07-23T11:29:44;8.63;;;7.93;;
43877;SDS011;29815;48.184;11.268;2022-07-23T11:32:23;8.63;;;7.78;;
43877;SDS011;29815;48.184;11.268;2022-07-23T11:35:18;8.18;;;7.38;;
43877;SDS011;29815;48.184;11.268;2022-07-23T11:37:56;7.95;;;7.18;;
43877;SDS011;29815;48.184;11.268;2022-07-23T11:40:37;10.13;;;8.25;;
43877;SDS011;29815;48.184;11.268;2022-07-23T11:43:07;8.77;;;7.90;;
43877;SDS011;29815;48.184;11.268;2022-07-23T11:45:39;8.45;;;7.55;;
43877;SDS011;29815;48.184;11.268;2022-07-23T11:48:15;8.50;;;7.10;;
43877;SDS011;29815;48.184;11.268;2022-07-23T11:50:48;8.05;;;7.35;;
43877;SDS011;29815;48.184;11.268;2022-07-23T11:53:23;7.85;;;6.78;;
43877;SDS011;29815;48.184;11.268;2022-07-23T11:55:56;9.07;;;7.03;;
43877;SDS011;29815;48.184;11.268;2022-07-23T11:58:33;8.40;;;7.60;;
43877;SDS011;29815;48.184;11.268;2022-07-23T12:01:03;9.13;;;6.90;;
43877;SDS011;29815;48.184;11.268;2022-07-23T12:03:48;7.57;;;6.88;;
43877;SDS011;29815;48.184;11.268;2022-07-23T12:06:19;7.50;;;6.70;;
43877;SDS011;29815;48.184;11.268;2022-07-23T12:08:49;8.93;;;7.35;;
43877;SDS011;29815;48.184;11.268;2022-07-23T12:11:19;8.32;;;7.35;;
43877;SDS011;29815;48.184;11.268;2022-07-23T12:13:55;7.72;;;6.93;;
43877;SDS011;29815;48.184;11.268;2022-07-23T12:16:26;7.40;;;6.70;;
43877;SDS011;29815;48.184;11.268;2022-07-23T12:18:55;8.07;;;7.28;;
43877;SDS011;29815;48.184;11.268;2022-07-23T12:21:25;7.22;;;6.57;;
43877;SDS011;29815;48.184;11.268;2022-07-23T12:24:05;7.47;;;6.78;;
43877;SDS011;29815;48.184;11.268;2022-07-23T12:26:36;8.27;;;6.93;;
43877;SDS011;29815;48.184;11.268;2022-07-23T12:29:06;8.00;;;7.13;;
43877;SDS011;29815;48.184;11.268;2022-07-23T12:31:36;8.52;;;7.53;;
43877;SDS011;29815;48.184;11.268;2022-07-23T12:34:13;7.90;;;7.03;;
43877;SDS011;29815;48.184;11.268;2022-07-23T12:36:43;7.93;;;7.22;;
43877;SDS011;29815;48.184;11.268;2022-07-23T12:39:20;7.53;;;6.80;;
43877;SDS011;29815;48.184;11.268;2022-07-23T12:42:00;8.40;;;7.50;;
43877;SDS011;29815;48.184;11.268;2022-07-23T12:44:30;8.10;;;7.35;;
43877;SDS011;29815;48.184;11.268;2022-07-23T12:47:05;8.65;;;7.38;;
43877;SDS011;29815;48.184;11.268;2022-07-23T12:49:35;7.90;;;6.80;;
43877;SDS011;29815;48.184;11.268;2022-07-23T12:52:14;7.82;;;7.13;;
43877;SDS011;29815;48.184;11.268;2022-07-23T12:54:46;10.15;;;9.07;;
43877;SDS011;29815;48.184;11.268;2022-07-23T12:57:17;8.68;;;7.85;;
43877;SDS011;29815;48.184;11.268;2022-07-23T12:59:47;9.93;;;8.90;;
43877;SDS011;29815;48.184;11.268;2022-07-23T13:02:17;12.07;;;8.32;;
43877;SDS011;29815;48.184;11.268;2022-07-23T13:04:48;8.50;;;7.60;;
43877;SDS011;29815;48.184;11.268;2022-07-23T13:07:17;8.55;;;7.68;;
43877;SDS011;29815;48.184;11.268;2022-07-23T13:09:48;10.40;;;7.63;;
43877;SDS011;29815;48.184;11.268;2022-07-23T13:12:19;9.13;;;8.23;;
43877;SDS011;29815;48.184;11.268;2022-07-23T13:14:48;8.32;;;7.63;;
43877;SDS011;29815;48.184;11.268;2022-07-23T13:17:18;10.32;;;8.38;;
43877;SDS011;29815;48.184;11.268;2022-07-23T13:19:49;8.68;;;7.88;;
43877;SDS011;29815;48.184;11.268;2022-07-23T13:22:18;9.00;;;7.35;;
43877;SDS011;29815;48.184;11.268;2022-07-23T13:24:48;9.35;;;8.00;;
43877;SDS011;29815;48.184;11.268;2022-07-23T13:27:20;9.05;;;8.15;;
43877;SDS011;29815;48.184;11.268;2022-07-23T13:29:50;8.60;;;7.70;;
43877;SDS011;29815;48.184;11.268;2022-07-23T13:32:20;8.38;;;7.57;;
43877;SDS011;29815;48.184;11.268;2022-07-23T13:34:50;8.55;;;7.75;;
43877;SDS011;29815;48.184;11.268;2022-07-23T13:37:19;8.40;;;7.13;;
43877;SDS011;29815;48.184;11.268;2022-07-23T13:39:51;9.88;;;7.38;;
43877;SDS011;29815;48.184;11.268;2022-07-23T13:42:22;8.23;;;7.38;;
43877;SDS011;29815;48.184;11.268;2022-07-23T13:44:52;8.38;;;7.68;;
43877;SDS011;29815;48.184;11.268;2022-07-23T13:47:22;8.63;;;7.65;;
43877;SDS011;29815;48.184;11.268;2022-07-23T13:49:51;8.73;;;7.38;;
43877;SDS011;29815;48.184;11.268;2022-07-23T13:52:21;8.15;;;7.40;;
43877;SDS011;29815;48.184;11.268;2022-07-23T13:54:51;8.13;;;7.32;;
43877;SDS011;29815;48.184;11.268;2022-07-23T13:57:23;8.30;;;7.28;;
43877;SDS011;29815;48.184;11.268;2022-07-23T14:02:23;8.85;;;7.57;;
43877;SDS011;29815;48.184;11.268;2022-07-23T14:04:53;7.67;;;6.90;;
43877;SDS011;29815;48.184;11.268;2022-07-23T14:07:22;8.18;;;6.63;;
43877;SDS011;29815;48.184;11.268;2022-07-23T14:09:52;7.85;;;7.15;;
43877;SDS011;29815;48.184;11.268;2022-07-23T14:12:23;7.60;;;6.53;;
43877;SDS011;29815;48.184;11.268;2022-07-23T14:14:59;7.80;;;7.10;;
43877;SDS011;29815;48.184;11.268;2022-07-23T14:17:30;8.38;;;7.45;;
43877;SDS011;29815;48.184;11.268;2022-07-23T14:20:00;7.75;;;6.75;;
43877;SDS011;29815;48.184;11.268;2022-07-23T14:22:29;8.55;;;7.75;;
43877;SDS011;29815;48.184;11.268;2022-07-23T14:24:59;8.18;;;7.47;;
43877;SDS011;29815;48.184;11.268;2022-07-23T14:27:35;7.35;;;6.65;;
43877;SDS011;29815;48.184;11.268;2022-07-23T14:30:07;8.40;;;7.63;;
43877;SDS011;29815;48.184;11.268;2022-07-23T14:32:38;7.97;;;7.20;;
43877;SDS011;29815;48.184;11.268;2022-07-23T14:35:08;7.88;;;7.18;;
43877;SDS011;29815;48.184;11.268;2022-07-23T14:37:38;8.63;;;7.63;;
43877;SDS011;29815;48.184;11.268;2022-07-23T14:40:09;8.30;;;7.22;;
43877;SDS011;29815;48.184;11.268;2022-07-23T14:42:41;9.10;;;8.13;;
43877;SDS011;29815;48.184;11.268;2022-07-23T14:47:40;8.57;;;7.65;;
43877;SDS011;29815;48.184;11.268;2022-07-23T14:57:47;9.07;;;8.27;;
43877;SDS011;29815;48.184;11.268;2022-07-23T15:00:17;8.27;;;7.38;;
43877;SDS011;29815;48.184;11.268;2022-07-23T15:02:50;8.75;;;7.88;;
43877;SDS011;29815;48.184;11.268;2022-07-23T15:07:53;8.13;;;7.32;;
43877;SDS011;29815;48.184;11.268;2022-07-23T15:10:23;8.27;;;7.45;;
43877;SDS011;29815;48.184;11.268;2022-07-23T15:12:54;9.10;;;8.25;;
43877;SDS011;29815;48.184;11.268;2022-07-23T15:17:54;8.25;;;7.43;;
43877;SDS011;29815;48.184;11.268;2022-07-23T15:20:24;8.05;;;7.25;;
43877;SDS011;29815;48.184;11.268;2022-07-23T15:23:03;8.05;;;7.25;;
43877;SDS011;29815;48.184;11.268;2022-07-23T15:25:34;9.63;;;8.68;;
43877;SDS011;29815;48.184;11.268;2022-07-23T15:28:06;8.80;;;8.07;;
43877;SDS011;29815;48.184;11.268;2022-07-23T15:30:36;9.80;;;8.43;;
43877;SDS011;29815;48.184;11.268;2022-07-23T15:33:06;8.93;;;8.13;;
43877;SDS011;29815;48.184;11.268;2022-07-23T15:35:48;9.38;;;8.57;;
43877;SDS011;29815;48.184;11.268;2022-07-23T15:40:52;8.32;;;7.53;;
43877;SDS011;29815;48.184;11.268;2022-07-23T15:43:25;8.85;;;8.05;;
43877;SDS011;29815;48.184;11.268;2022-07-23T15:45:55;9.38;;;8.57;;